createdAt,value
2018-07-22T11:47:35.334Z,3.60
2018-07-22T11:50:09.244Z,3.70
2018-07-22T11:52:41.457Z,3.80
2018-07-22T11:55:14.014Z,3.43
2018-07-22T11:57:47.584Z,3.93
2018-07-22T12:00:21.536Z,3.73
2018-07-22T12:03:05.489Z,3.60
2018-07-22T12:05:37.410Z,4.17
2018-07-22T12:08:09.890Z,3.80
2018-07-22T12:10:42.558Z,4.13
2018-07-22T12:13:15.850Z,4.20
2018-07-22T12:15:53.393Z,4.03
2018-07-22T12:18:28.161Z,3.60
2018-07-22T12:21:01.401Z,3.40
2018-07-22T12:23:37.701Z,3.37
2018-07-22T12:26:12.891Z,3.23
2018-07-22T12:28:51.524Z,6.50
2018-07-22T12:31:32.628Z,4.17
2018-07-22T12:34:06.255Z,3.93
2018-07-22T12:36:38.174Z,4.13
2018-07-22T12:39:13.566Z,4.13
2018-07-22T12:41:55.627Z,4.47
2018-07-22T12:44:35.716Z,4.67
2018-07-22T12:47:16.267Z,6.10
2018-07-22T12:49:48.113Z,5.53
2018-07-22T12:52:21.872Z,5.00
2018-07-22T12:54:54.293Z,5.03
2018-07-22T12:57:27.362Z,5.73
2018-07-22T12:59:59.673Z,6.43
2018-07-22T13:02:34.512Z,6.07
2018-07-22T13:05:07.102Z,6.63
2018-07-22T13:07:41.456Z,6.73
2018-07-22T13:10:15.462Z,6.30
2018-07-22T13:12:51.851Z,6.47
2018-07-22T13:15:23.619Z,6.80
2018-07-22T13:17:59.700Z,7.67
2018-07-22T13:20:39.110Z,7.23
2018-07-22T13:23:11.141Z,6.77
2018-07-22T13:25:42.780Z,7.17
2018-07-22T13:28:14.971Z,6.80
2018-07-22T13:30:54.797Z,7.20
2018-07-22T13:33:35.154Z,7.07
2018-07-22T13:36:14.959Z,6.87
2018-07-22T13:38:54.518Z,7.40
2018-07-22T13:41:33.886Z,7.17
2018-07-22T13:44:08.126Z,7.63
2018-07-22T13:46:44.728Z,7.03
2018-07-22T13:49:22.665Z,7.17
2018-07-22T13:52:02.509Z,7.03
2018-07-22T13:54:42.148Z,7.60
2018-07-22T13:57:13.990Z,7.87
2018-07-22T13:59:51.014Z,7.07
2018-07-22T14:02:30.704Z,5.70
2018-07-22T14:05:06.888Z,5.60
2018-07-22T14:07:46.260Z,8.07
2018-07-22T14:10:26.131Z,9.33
2018-07-22T14:13:06.008Z,8.30
2018-07-22T14:15:45.705Z,9.13
2018-07-22T14:18:25.970Z,8.40
2018-07-22T14:21:09.041Z,10.17
2018-07-22T14:23:49.679Z,9.43
2018-07-22T14:26:40.064Z,9.13
2018-07-22T14:29:20.589Z,9.00
2018-07-22T14:32:02.040Z,8.70
2018-07-22T14:34:42.426Z,9.47
2018-07-22T14:37:22.830Z,9.90
2018-07-22T14:40:03.642Z,10.20
2018-07-22T14:42:44.060Z,10.60
2018-07-22T14:45:24.337Z,9.90
2018-07-22T14:47:56.186Z,9.33
2018-07-22T14:50:36.680Z,9.10
2018-07-22T14:53:09.298Z,8.80
2018-07-22T14:55:50.700Z,8.70
2018-07-22T14:58:30.701Z,8.43
2018-07-22T15:01:04.759Z,7.63
2018-07-22T15:03:58.348Z,6.30
2018-07-22T15:06:31.239Z,6.27
2018-07-22T15:09:11.361Z,6.77
2018-07-22T15:11:51.216Z,6.43
2018-07-22T15:14:31.055Z,5.90
2018-07-22T15:17:10.933Z,6.07
2018-07-22T15:19:51.508Z,6.40
2018-07-22T15:22:31.693Z,6.17
2018-07-22T15:25:11.603Z,7.30
2018-07-22T15:27:52.140Z,6.90
2018-07-22T15:30:31.980Z,6.73
2018-07-22T15:33:12.152Z,5.53
2018-07-22T15:35:52.346Z,5.30
2018-07-22T15:38:33.677Z,4.93
2018-07-22T15:41:14.443Z,5.30
2018-07-22T15:43:54.810Z,4.70
2018-07-22T15:46:35.441Z,4.60
2018-07-22T15:49:15.910Z,4.00
2018-07-22T15:51:53.241Z,4.80
2018-07-22T15:54:33.287Z,3.80
2018-07-22T15:57:12.764Z,4.30
2018-07-22T15:59:52.790Z,4.10
2018-07-22T16:02:32.552Z,4.33
2018-07-22T16:05:13.331Z,4.60
2018-07-22T16:07:53.377Z,4.17
2018-07-22T16:10:35.990Z,4.47
2018-07-22T16:13:16.357Z,4.67
2018-07-22T16:15:56.792Z,3.83
2018-07-22T16:18:36.641Z,4.57
2018-07-22T16:21:16.975Z,4.60
2018-07-22T16:23:56.631Z,5.63
2018-07-22T16:26:37.192Z,4.50
2018-07-22T16:29:16.678Z,4.53
2018-07-22T16:31:56.760Z,4.60
2018-07-22T16:34:37.067Z,4.53
2018-07-22T16:37:17.855Z,4.13
2018-07-22T16:39:57.801Z,4.27
2018-07-22T16:42:37.729Z,4.50
2018-07-22T16:45:15.583Z,4.30
2018-07-22T16:47:54.920Z,4.60
2018-07-22T16:50:35.240Z,4.23
2018-07-22T16:53:15.377Z,4.70
2018-07-22T16:55:55.465Z,4.53
2018-07-22T16:58:35.457Z,4.70
2018-07-22T17:01:15.438Z,4.93
2018-07-22T17:03:55.954Z,5.00
2018-07-22T17:06:37.383Z,4.40
2018-07-22T17:09:17.850Z,4.53
2018-07-22T17:11:57.504Z,5.10
2018-07-22T17:14:37.460Z,4.87
2018-07-22T17:18:21.954Z,4.70
2018-07-22T17:21:02.482Z,4.10
2018-07-22T17:23:43.799Z,4.20
2018-07-22T17:26:24.512Z,4.40
2018-07-22T17:29:05.083Z,4.43
2018-07-22T17:31:45.651Z,5.10
2018-07-22T17:34:25.709Z,4.33
2018-07-22T17:37:05.452Z,3.80
2018-07-22T17:39:45.107Z,4.00
2018-07-22T17:42:26.025Z,3.87
2018-07-22T17:45:05.584Z,4.50
2018-07-22T17:47:38.544Z,4.53
2018-07-22T17:50:15.868Z,6.30
2018-07-22T17:52:56.055Z,4.57
2018-07-22T17:55:36.201Z,4.17
2018-07-22T17:58:16.484Z,4.63
2018-07-22T18:00:56.398Z,4.23
2018-07-22T18:03:36.534Z,5.20
2018-07-22T18:06:15.995Z,4.93
2018-07-22T18:08:55.446Z,5.10
2018-07-22T18:11:32.322Z,5.20
2018-07-22T18:14:13.155Z,4.60
2018-07-22T18:16:53.629Z,5.57
2018-07-22T18:19:33.210Z,5.40
2018-07-22T18:22:13.104Z,4.73
2018-07-22T18:24:52.395Z,5.70
2018-07-22T18:27:31.139Z,5.63
2018-07-22T18:30:11.313Z,5.17
2018-07-22T18:32:43.483Z,5.70
2018-07-22T18:35:23.499Z,6.10
2018-07-22T18:38:03.652Z,6.77
2018-07-22T18:40:41.982Z,6.00
2018-07-22T18:43:19.232Z,5.63
2018-07-22T18:45:59.338Z,6.43
2018-07-22T18:48:39.752Z,6.50
2018-07-22T18:51:19.543Z,6.40
2018-07-22T18:53:57.977Z,6.90
2018-07-22T18:56:37.344Z,6.77
2018-07-22T18:59:17.302Z,6.43
2018-07-22T19:01:57.154Z,6.80
2018-07-22T19:04:37.153Z,6.90
2018-07-22T19:07:17.078Z,7.10
2018-07-22T19:09:57.123Z,6.70
2018-07-22T19:12:36.959Z,6.43
2018-07-22T19:15:17.721Z,6.40
2018-07-22T19:17:57.870Z,6.30
2018-07-22T19:20:38.109Z,6.13
2018-07-22T19:23:17.713Z,7.40
2018-07-22T19:25:57.800Z,7.10
2018-07-22T19:28:37.590Z,7.70
2018-07-22T19:31:17.696Z,7.30
2018-07-22T19:33:58.042Z,7.07
2018-07-22T19:37:01.805Z,7.13
2018-07-22T19:39:42.931Z,7.27
2018-07-22T19:42:23.667Z,7.77
2018-07-22T19:45:03.018Z,6.93
2018-07-22T19:47:42.745Z,6.90
2018-07-22T19:50:22.671Z,8.03
2018-07-22T19:53:04.816Z,7.00
2018-07-22T19:55:45.220Z,8.37
2018-07-22T19:58:25.443Z,8.57
2018-07-22T20:01:05.316Z,6.63
2018-07-22T20:03:37.647Z,7.60
2018-07-22T20:06:17.525Z,6.93
2018-07-22T20:08:50.071Z,5.83
2018-07-22T20:11:30.433Z,6.37
2018-07-22T20:14:10.485Z,5.90
2018-07-22T20:16:50.944Z,6.13
2018-07-22T20:19:30.607Z,6.10
2018-07-22T20:22:10.392Z,6.97
2018-07-22T20:24:49.891Z,6.97
2018-07-22T20:27:21.580Z,7.43
2018-07-22T20:29:59.082Z,11.03
2018-07-22T20:32:37.341Z,9.17
2018-07-22T20:35:17.011Z,9.70
2018-07-22T20:37:56.903Z,9.70
2018-07-22T20:40:37.262Z,8.57
2018-07-22T20:43:16.764Z,9.20
2018-07-22T20:45:56.766Z,7.90
2018-07-22T20:48:28.737Z,8.57
2018-07-22T20:51:08.860Z,8.33
2018-07-22T20:53:49.370Z,8.20
2018-07-22T20:56:29.938Z,7.77
2018-07-22T20:59:10.569Z,8.47
2018-07-22T21:01:50.724Z,8.07
2018-07-22T21:04:31.063Z,8.07
2018-07-22T21:07:11.348Z,8.83
2018-07-22T21:09:51.436Z,8.90
2018-07-22T21:12:30.624Z,8.60
2018-07-22T21:15:10.542Z,9.70
2018-07-22T21:17:49.360Z,9.10
2018-07-22T21:20:31.057Z,9.40
2018-07-22T21:23:10.629Z,10.47
2018-07-22T21:25:50.355Z,10.40
2018-07-22T21:28:30.384Z,9.83
2018-07-22T21:31:14.342Z,10.13
2018-07-22T21:33:54.861Z,11.83
2018-07-22T21:36:34.625Z,11.87
2018-07-22T21:39:10.264Z,10.70
2018-07-22T21:41:50.706Z,11.67
2018-07-22T21:44:31.567Z,11.20
2018-07-22T21:49:58.341Z,11.10
2018-07-22T21:52:38.580Z,11.07
2018-07-22T21:55:10.722Z,10.93
2018-07-22T21:57:50.770Z,12.03
2018-07-22T22:00:35.613Z,11.73
2018-07-22T22:03:15.764Z,12.20
2018-07-22T22:05:55.913Z,11.90
2018-07-22T22:08:36.488Z,12.87
2018-07-22T22:11:16.848Z,12.27
2018-07-22T22:13:56.614Z,12.73
2018-07-22T22:16:37.584Z,12.77
2018-07-22T22:19:21.629Z,12.43
2018-07-22T22:21:55.655Z,12.37
2018-07-22T22:24:35.431Z,12.23
2018-07-22T22:27:15.472Z,12.50
2018-07-22T22:29:54.516Z,11.93
2018-07-22T22:32:31.427Z,12.20
2018-07-22T22:35:11.746Z,12.60
2018-07-22T22:37:51.792Z,12.00
2018-07-22T22:40:34.164Z,10.47
2018-07-22T22:43:14.281Z,9.43
2018-07-22T22:45:56.419Z,8.40
2018-07-22T22:48:35.745Z,9.20
2018-07-22T22:51:19.139Z,6.87
2018-07-22T22:53:51.790Z,6.77
2018-07-22T22:56:23.103Z,7.90
2018-07-22T22:59:04.720Z,8.27
2018-07-22T23:01:36.734Z,7.30
2018-07-22T23:04:09.209Z,7.10
2018-07-22T23:06:41.249Z,6.73
2018-07-22T23:09:14.209Z,6.57
2018-07-22T23:11:46.259Z,6.50
2018-07-22T23:14:26.712Z,6.30
2018-07-22T23:17:04.853Z,6.30
2018-07-22T23:19:36.043Z,6.80
2018-07-22T23:22:08.577Z,6.40
2018-07-22T23:24:54.846Z,7.27
2018-07-22T23:27:25.977Z,7.70
2018-07-22T23:29:58.053Z,7.30
2018-07-22T23:32:29.240Z,7.20
2018-07-22T23:35:10.869Z,9.10
2018-07-22T23:37:53.781Z,8.77
2018-07-22T23:40:25.160Z,9.00
2018-07-22T23:42:57.941Z,9.63
2018-07-22T23:45:39.840Z,10.03
2018-07-22T23:48:11.760Z,9.90
2018-07-22T23:50:56.541Z,10.27
2018-07-22T23:53:27.491Z,9.97
2018-07-22T23:56:05.814Z,10.50
2018-07-22T23:58:38.061Z,10.13
